Umm Slal — V7PW3 — position and weather

sailwx.info

Track history (hours):
 
Tides and Currents Weather Stations Pressure Air Temp Water Temp Dewpoint Dewpoint Depression Visibility Wind Speed Wind Dir Waves Ship Positions

Umm Slal

Last reported at 2014-Jul-09 23:05 UTC. Time now 2014-Jul-25 11:19 UTC.
Position N 31°01' E 032°19'.
Warning: this ship's position is 15 days out of date.

Length 345 m; draft 9.5 m.

Type: Ship (hazmat cat D). MMSI: 538003300.

Date/timePositionNaut miles runAvg speedWind from/ knotsBaromVisibWave heightAir tempDewpointWater temp
2014-Jul-09 23:05N 31°01' E 032°19'4 8.1
2014-Jul-09 22:33N 31°06' E 032°18'8 7.8
2014-Jul-09 21:33N 31°13' E 032°21'1010.0
2014-Jul-09 20:33N 31°23' E 032°23'6 5.7
2014-Jul-09 19:32N 31°25' E 032°17'1 0.8
2014-Jul-09 18:31N 31°24' E 032°17'0 0.0
2014-Jul-09 17:32N 31°24' E 032°17'0 0.0
2014-Jul-09 16:33N 31°24' E 032°17'0 0.0
2014-Jul-09 15:33N 31°24' E 032°17'0 0.0
2014-Jul-09 14:28N 31°24' E 032°17'0 0.2
2014-Jul-09 13:33N 31°24' E 032°16'6 6.0
2014-Jul-09 12:30N 31°30' E 032°13'1515.5
2014-Jul-09 11:33N 31°41' E 032°02'1615.6
2014-Jul-09 10:33N 31°51' E 031°48'1716.0
2014-Jul-09 09:29N 32°04' E 031°34'1516.3
2014-Jul-09 08:33N 32°15' E 031°22'3517.4
2014-Jul-09 06:33N 32°25' E 030°43'1413.6
2014-Jul-09 05:33N 32°28' E 030°27'1716.4
2014-Jul-09 04:30N 32°33' E 030°07'1715.9
2014-Jul-09 03:27N 32°38' E 029°48'1415.3
2014-Jul-09 02:34N 32°42' E 029°33'3015.2
2014-Jul-09 00:33N 32°50' E 028°58'1615.9
2014-Jul-08 23:33N 32°55' E 028°40'7915.9
2014-Jul-08 18:33N 33°16' E 027°09'59715.7
2014-Jul-07 04:34N 35°60' E 015°31'1515.2
2014-Jul-07 03:33N 36°03' E 015°13'1515.2
2014-Jul-07 02:33N 36°06' E 014°55'1515.1
2014-Jul-07 01:33N 36°11' E 014°37'1515.1
2014-Jul-07 00:33N 36°15' E 014°19'1514.9
2014-Jul-06 23:33N 36°21' E 014°02'1515.3
2014-Jul-06 22:34N 36°26' E 013°44'1515.4
2014-Jul-06 21:34N 36°33' E 013°27'1615.7
2014-Jul-06 20:33N 36°38' E 013°08'1616.4
2014-Jul-06 19:34N 36°44' E 012°49'1616.3
2014-Jul-06 18:34N 36°50' E 012°30'1615.9
2014-Jul-06 17:34N 36°57' E 012°12'1615.7
2014-Jul-06 16:33N 37°03' E 011°54'1615.6
2014-Jul-06 15:33N 37°11' E 011°37'1715.6
2014-Jul-06 14:28N 37°18' E 011°18'1415.4
2014-Jul-06 13:33N 37°24' E 011°02'1615.4
2014-Jul-06 12:33N 37°29' E 010°43'1515.1
2014-Jul-06 11:33N 37°35' E 010°26'1515.7
2014-Jul-06 10:34N 37°45' E 010°11'1615.6
2014-Jul-06 09:33N 37°50' E 009°52'1515.5
2014-Jul-06 08:33N 37°55' E 009°34'1515.5
2014-Jul-06 07:34N 38°00' E 009°15'1515.3
2014-Jul-06 06:34N 38°04' E 008°56'2315.3
2014-Jul-06 05:04N 38°03' E 008°27'1415.1
2014-Jul-06 04:10N 38°02' E 008°10'2414.9
2014-Jul-06 02:32N 37°60' E 007°39'1515.2
2014-Jul-06 01:34N 37°58' E 007°20'1716.1
2014-Jul-06 00:31N 37°55' E 006°59'4615.2
2014-Jul-05 21:29N 37°50' E 006°01'1714.7
2014-Jul-05 20:19N 37°48' E 005°40'1215.4
2014-Jul-05 19:33N 37°47' E 005°25'9314.7
2014-Jul-05 13:15N 37°35' E 003°29'1115.1
2014-Jul-05 12:33N 37°34' E 003°15'1515.1
2014-Jul-05 11:33N 37°32' E 002°57'1715.3
2014-Jul-05 10:28N 37°30' E 002°36'1415.4
2014-Jul-05 09:33N 37°28' E 002°18'6715.5
2014-Jul-05 05:14N 37°08' E 000°58'1215.6
2014-Jul-05 04:30N 37°04' E 000°45'1915.8
2014-Jul-05 03:17N 36°57' E 000°22'8416.3
2014-Jul-04 22:06N 36°30' W 001°18'915.8
2014-Jul-04 21:34N 36°28' W 001°28'1615.7
2014-Jul-04 20:32N 36°23' W 001°47'17116.3
2014-Jul-04 10:03N 35°59' W 005°17'817.0
2014-Jul-04 09:33N 35°57' W 005°27'11215.8
2014-Jul-04 02:29N 36°04' W 007°45'1615.7
2014-Jul-04 01:26N 36°10' W 008°04'3015.6
2014-Jul-03 23:29N 36°20' W 008°40'1615.4
2014-Jul-03 22:29N 36°24' W 008°59'1515.5
2014-Jul-03 21:30N 36°29' W 009°17'1615.7
2014-Jul-03 20:29N 36°40' W 009°31'1515.6
2014-Jul-03 19:30N 36°53' W 009°40'1515.9
2014-Jul-03 18:32N 37°08' W 009°45'1616.0
2014-Jul-03 17:31N 37°24' W 009°49'1616.1
2014-Jul-03 16:32N 37°39' W 009°53'2016.0
2014-Jul-03 15:18N 37°59' W 009°59'1716.2
2014-Jul-03 14:13N 38°16' W 010°04'912.2
2014-Jul-03 13:31N 38°24' W 010°07'72115.9
2014-Jul-01 16:08N 50°11' W 006°57'814.9
2014-Jul-01 15:33N 50°18' W 006°49'1515.3
2014-Jul-01 14:33N 50°31' W 006°35'91 2.4
2014-Jun-30 00:12N 51°42' W 005°05'3 5.3
2014-Jun-29 23:33N 51°40' W 005°10'  
Track history (hours):
 
Tides and Currents Weather Stations Pressure Air Temp Water Temp Dewpoint Dewpoint Depression Visibility Wind Speed Wind Dir Waves Ship Positions

Umm Slal

Last reported at 2014-Jul-09 23:05 UTC. Time now 2014-Jul-25 11:19 UTC.
Position N 31°01' E 032°19'.
Warning: this ship's position is 15 days out of date.

Length 345 m; draft 9.5 m.

Type: Ship (hazmat cat D). MMSI: 538003300.

Date/timePositionNaut miles runAvg speedWind from/ knotsBaromVisibWave heightAir tempDewpointWater temp
2014-Jul-09 23:05N 31°01' E 032°19'4 8.1
2014-Jul-09 22:33N 31°06' E 032°18'8 7.8
2014-Jul-09 21:33N 31°13' E 032°21'1010.0
2014-Jul-09 20:33N 31°23' E 032°23'6 5.7
2014-Jul-09 19:32N 31°25' E 032°17'1 0.8
2014-Jul-09 18:31N 31°24' E 032°17'0 0.0
2014-Jul-09 17:32N 31°24' E 032°17'0 0.0
2014-Jul-09 16:33N 31°24' E 032°17'0 0.0
2014-Jul-09 15:33N 31°24' E 032°17'0 0.0
2014-Jul-09 14:28N 31°24' E 032°17'0 0.2
2014-Jul-09 13:33N 31°24' E 032°16'6 6.0
2014-Jul-09 12:30N 31°30' E 032°13'1515.5
2014-Jul-09 11:33N 31°41' E 032°02'1615.6
2014-Jul-09 10:33N 31°51' E 031°48'1716.0
2014-Jul-09 09:29N 32°04' E 031°34'1516.3
2014-Jul-09 08:33N 32°15' E 031°22'3517.4
2014-Jul-09 06:33N 32°25' E 030°43'1413.6
2014-Jul-09 05:33N 32°28' E 030°27'1716.4
2014-Jul-09 04:30N 32°33' E 030°07'1715.9
2014-Jul-09 03:27N 32°38' E 029°48'1415.3
2014-Jul-09 02:34N 32°42' E 029°33'3015.2
2014-Jul-09 00:33N 32°50' E 028°58'1615.9
2014-Jul-08 23:33N 32°55' E 028°40'7915.9
2014-Jul-08 18:33N 33°16' E 027°09'59715.7
2014-Jul-07 04:34N 35°60' E 015°31'1515.2
2014-Jul-07 03:33N 36°03' E 015°13'1515.2
2014-Jul-07 02:33N 36°06' E 014°55'1515.1
2014-Jul-07 01:33N 36°11' E 014°37'1515.1
2014-Jul-07 00:33N 36°15' E 014°19'1514.9
2014-Jul-06 23:33N 36°21' E 014°02'1515.3
2014-Jul-06 22:34N 36°26' E 013°44'1515.4
2014-Jul-06 21:34N 36°33' E 013°27'1615.7
2014-Jul-06 20:33N 36°38' E 013°08'1616.4
2014-Jul-06 19:34N 36°44' E 012°49'1616.3
2014-Jul-06 18:34N 36°50' E 012°30'1615.9
2014-Jul-06 17:34N 36°57' E 012°12'1615.7
2014-Jul-06 16:33N 37°03' E 011°54'1615.6
2014-Jul-06 15:33N 37°11' E 011°37'1715.6
2014-Jul-06 14:28N 37°18' E 011°18'1415.4
2014-Jul-06 13:33N 37°24' E 011°02'1615.4
2014-Jul-06 12:33N 37°29' E 010°43'1515.1
2014-Jul-06 11:33N 37°35' E 010°26'1515.7
2014-Jul-06 10:34N 37°45' E 010°11'1615.6
2014-Jul-06 09:33N 37°50' E 009°52'1515.5
2014-Jul-06 08:33N 37°55' E 009°34'1515.5
2014-Jul-06 07:34N 38°00' E 009°15'1515.3
2014-Jul-06 06:34N 38°04' E 008°56'2315.3
2014-Jul-06 05:04N 38°03' E 008°27'1415.1
2014-Jul-06 04:10N 38°02' E 008°10'2414.9
2014-Jul-06 02:32N 37°60' E 007°39'1515.2
2014-Jul-06 01:34N 37°58' E 007°20'1716.1
2014-Jul-06 00:31N 37°55' E 006°59'4615.2
2014-Jul-05 21:29N 37°50' E 006°01'1714.7
2014-Jul-05 20:19N 37°48' E 005°40'1215.4
2014-Jul-05 19:33N 37°47' E 005°25'9314.7
2014-Jul-05 13:15N 37°35' E 003°29'1115.1
2014-Jul-05 12:33N 37°34' E 003°15'1515.1
2014-Jul-05 11:33N 37°32' E 002°57'1715.3
2014-Jul-05 10:28N 37°30' E 002°36'1415.4
2014-Jul-05 09:33N 37°28' E 002°18'6715.5
2014-Jul-05 05:14N 37°08' E 000°58'1215.6
2014-Jul-05 04:30N 37°04' E 000°45'1915.8
2014-Jul-05 03:17N 36°57' E 000°22'8416.3
2014-Jul-04 22:06N 36°30' W 001°18'915.8
2014-Jul-04 21:34N 36°28' W 001°28'1615.7
2014-Jul-04 20:32N 36°23' W 001°47'17116.3
2014-Jul-04 10:03N 35°59' W 005°17'817.0
2014-Jul-04 09:33N 35°57' W 005°27'11215.8
2014-Jul-04 02:29N 36°04' W 007°45'1615.7
2014-Jul-04 01:26N 36°10' W 008°04'3015.6
2014-Jul-03 23:29N 36°20' W 008°40'1615.4
2014-Jul-03 22:29N 36°24' W 008°59'1515.5
2014-Jul-03 21:30N 36°29' W 009°17'1615.7
2014-Jul-03 20:29N 36°40' W 009°31'1515.6
2014-Jul-03 19:30N 36°53' W 009°40'1515.9
2014-Jul-03 18:32N 37°08' W 009°45'1616.0
2014-Jul-03 17:31N 37°24' W 009°49'1616.1
2014-Jul-03 16:32N 37°39' W 009°53'2016.0
2014-Jul-03 15:18N 37°59' W 009°59'1716.2
2014-Jul-03 14:13N 38°16' W 010°04'912.2
2014-Jul-03 13:31N 38°24' W 010°07'72115.9
2014-Jul-01 16:08N 50°11' W 006°57'814.9
2014-Jul-01 15:33N 50°18' W 006°49'1515.3
2014-Jul-01 14:33N 50°31' W 006°35'91 2.4
2014-Jun-30 00:12N 51°42' W 005°05'3 5.3
2014-Jun-29 23:33N 51°40' W 005°10'  

Dump ship's entire track history